sensor_id;sensor_type;location;lat;lon;timestamp;P1;durP1;ratioP1;P2;durP2;ratioP2
21420;SDS011;10871;50.144;8.428;2023-03-31T00:01:49;7.07;;;2.03;;
21420;SDS011;10871;50.144;8.428;2023-03-31T00:04:18;8.07;;;2.13;;
21420;SDS011;10871;50.144;8.428;2023-03-31T00:06:49;8.40;;;2.10;;
21420;SDS011;10871;50.144;8.428;2023-03-31T00:09:20;8.18;;;2.13;;
21420;SDS011;10871;50.144;8.428;2023-03-31T00:11:50;7.63;;;2.05;;
21420;SDS011;10871;50.144;8.428;2023-03-31T00:14:20;11.95;;;2.67;;
21420;SDS011;10871;50.144;8.428;2023-03-31T00:16:47;13.98;;;2.75;;
21420;SDS011;10871;50.144;8.428;2023-03-31T00:19:13;11.88;;;2.38;;
21420;SDS011;10871;50.144;8.428;2023-03-31T00:21:46;8.75;;;2.40;;
21420;SDS011;10871;50.144;8.428;2023-03-31T00:24:14;9.05;;;2.45;;
21420;SDS011;10871;50.144;8.428;2023-03-31T00:26:41;10.25;;;2.55;;
21420;SDS011;10871;50.144;8.428;2023-03-31T00:29:08;8.98;;;2.40;;
21420;SDS011;10871;50.144;8.428;2023-03-31T00:31:35;10.43;;;2.45;;
21420;SDS011;10871;50.144;8.428;2023-03-31T00:34:04;10.68;;;2.63;;
21420;SDS011;10871;50.144;8.428;2023-03-31T00:36:32;9.18;;;2.85;;
21420;SDS011;10871;50.144;8.428;2023-03-31T00:39:03;9.85;;;2.38;;
21420;SDS011;10871;50.144;8.428;2023-03-31T00:41:34;13.65;;;4.05;;
21420;SDS011;10871;50.144;8.428;2023-03-31T00:46:39;9.80;;;3.30;;
21420;SDS011;10871;50.144;8.428;2023-03-31T00:49:13;9.65;;;3.70;;
21420;SDS011;10871;50.144;8.428;2023-03-31T00:51:42;11.18;;;3.67;;
21420;SDS011;10871;50.144;8.428;2023-03-31T00:54:10;12.13;;;3.35;;
21420;SDS011;10871;50.144;8.428;2023-03-31T00:56:38;9.63;;;3.65;;
21420;SDS011;10871;50.144;8.428;2023-03-31T00:59:06;16.20;;;3.55;;
21420;SDS011;10871;50.144;8.428;2023-03-31T01:01:33;8.35;;;3.15;;
21420;SDS011;10871;50.144;8.428;2023-03-31T01:04:02;14.88;;;3.80;;
21420;SDS011;10871;50.144;8.428;2023-03-31T01:06:29;8.77;;;3.10;;
21420;SDS011;10871;50.144;8.428;2023-03-31T01:08:56;9.85;;;3.15;;
21420;SDS011;10871;50.144;8.428;2023-03-31T01:11:23;14.48;;;3.22;;
21420;SDS011;10871;50.144;8.428;2023-03-31T01:13:50;11.00;;;3.25;;
21420;SDS011;10871;50.144;8.428;2023-03-31T01:16:18;13.40;;;3.50;;
21420;SDS011;10871;50.144;8.428;2023-03-31T01:18:45;11.65;;;3.55;;
21420;SDS011;10871;50.144;8.428;2023-03-31T01:26:27;9.55;;;3.33;;
21420;SDS011;10871;50.144;8.428;2023-03-31T01:29:07;8.25;;;2.80;;
21420;SDS011;10871;50.144;8.428;2023-03-31T01:31:40;12.90;;;3.30;;
21420;SDS011;10871;50.144;8.428;2023-03-31T01:37:04;14.48;;;3.10;;
21420;SDS011;10871;50.144;8.428;2023-03-31T01:47:35;11.60;;;3.92;;
21420;SDS011;10871;50.144;8.428;2023-03-31T01:50:17;13.63;;;3.67;;
21420;SDS011;10871;50.144;8.428;2023-03-31T01:52:49;11.65;;;3.13;;
21420;SDS011;10871;50.144;8.428;2023-03-31T01:55:19;13.50;;;3.80;;
21420;SDS011;10871;50.144;8.428;2023-03-31T01:57:50;10.80;;;3.05;;
21420;SDS011;10871;50.144;8.428;2023-03-31T02:00:19;13.65;;;3.38;;
21420;SDS011;10871;50.144;8.428;2023-03-31T02:03:05;15.32;;;3.63;;
21420;SDS011;10871;50.144;8.428;2023-03-31T02:05:39;13.55;;;3.90;;
21420;SDS011;10871;50.144;8.428;2023-03-31T02:10:34;18.88;;;4.07;;
21420;SDS011;10871;50.144;8.428;2023-03-31T02:13:01;14.30;;;3.63;;
21420;SDS011;10871;50.144;8.428;2023-03-31T02:15:29;10.88;;;3.33;;
21420;SDS011;10871;50.144;8.428;2023-03-31T02:17:59;13.10;;;3.80;;
21420;SDS011;10871;50.144;8.428;2023-03-31T02:20:29;14.30;;;3.90;;
21420;SDS011;10871;50.144;8.428;2023-03-31T02:22:57;15.77;;;3.60;;
21420;SDS011;10871;50.144;8.428;2023-03-31T02:25:28;17.88;;;3.83;;
21420;SDS011;10871;50.144;8.428;2023-03-31T02:28:01;10.10;;;3.45;;
21420;SDS011;10871;50.144;8.428;2023-03-31T02:30:31;17.60;;;3.72;;
21420;SDS011;10871;50.144;8.428;2023-03-31T02:32:58;13.65;;;4.10;;
21420;SDS011;10871;50.144;8.428;2023-03-31T02:35:25;13.40;;;3.97;;
21420;SDS011;10871;50.144;8.428;2023-03-31T02:37:55;14.30;;;4.65;;
21420;SDS011;10871;50.144;8.428;2023-03-31T02:40:24;14.10;;;3.90;;
21420;SDS011;10871;50.144;8.428;2023-03-31T02:42:53;10.60;;;4.05;;
21420;SDS011;10871;50.144;8.428;2023-03-31T02:48:09;14.43;;;3.40;;
21420;SDS011;10871;50.144;8.428;2023-03-31T02:50:49;11.50;;;3.60;;
21420;SDS011;10871;50.144;8.428;2023-03-31T02:55:55;13.00;;;4.07;;
21420;SDS011;10871;50.144;8.428;2023-03-31T02:58:49;10.38;;;3.63;;
21420;SDS011;10871;50.144;8.428;2023-03-31T03:08:45;11.40;;;3.28;;
21420;SDS011;10871;50.144;8.428;2023-03-31T03:11:19;8.75;;;3.83;;
21420;SDS011;10871;50.144;8.428;2023-03-31T03:13:52;17.50;;;5.00;;
21420;SDS011;10871;50.144;8.428;2023-03-31T03:16:23;15.95;;;5.00;;
21420;SDS011;10871;50.144;8.428;2023-03-31T03:21:22;21.02;;;6.53;;
21420;SDS011;10871;50.144;8.428;2023-03-31T03:23:49;16.52;;;6.18;;
21420;SDS011;10871;50.144;8.428;2023-03-31T03:26:17;19.10;;;6.72;;
21420;SDS011;10871;50.144;8.428;2023-03-31T03:28:46;17.15;;;7.85;;
21420;SDS011;10871;50.144;8.428;2023-03-31T03:31:14;24.52;;;9.77;;
21420;SDS011;10871;50.144;8.428;2023-03-31T03:33:41;40.45;;;10.15;;
21420;SDS011;10871;50.144;8.428;2023-03-31T03:36:08;27.85;;;11.77;;
21420;SDS011;10871;50.144;8.428;2023-03-31T03:38:35;37.00;;;12.60;;
21420;SDS011;10871;50.144;8.428;2023-03-31T03:41:02;23.73;;;11.77;;
21420;SDS011;10871;50.144;8.428;2023-03-31T03:43:29;24.42;;;12.40;;
21420;SDS011;10871;50.144;8.428;2023-03-31T03:45:55;25.08;;;11.35;;
21420;SDS011;10871;50.144;8.428;2023-03-31T03:48:22;25.75;;;11.90;;
21420;SDS011;10871;50.144;8.428;2023-03-31T03:50:49;24.23;;;11.73;;
21420;SDS011;10871;50.144;8.428;2023-03-31T03:53:15;24.88;;;11.00;;
21420;SDS011;10871;50.144;8.428;2023-03-31T03:55:42;23.30;;;10.35;;
21420;SDS011;10871;50.144;8.428;2023-03-31T03:58:11;18.35;;;10.27;;
21420;SDS011;10871;50.144;8.428;2023-03-31T04:00:38;25.23;;;11.57;;
21420;SDS011;10871;50.144;8.428;2023-03-31T04:03:04;23.73;;;11.10;;
21420;SDS011;10871;50.144;8.428;2023-03-31T04:05:31;24.30;;;12.70;;
21420;SDS011;10871;50.144;8.428;2023-03-31T04:07:57;28.65;;;13.65;;
21420;SDS011;10871;50.144;8.428;2023-03-31T04:10:24;22.80;;;12.27;;
21420;SDS011;10871;50.144;8.428;2023-03-31T04:12:53;26.35;;;11.93;;
21420;SDS011;10871;50.144;8.428;2023-03-31T04:15:20;33.25;;;12.80;;
21420;SDS011;10871;50.144;8.428;2023-03-31T04:17:47;28.58;;;10.95;;
21420;SDS011;10871;50.144;8.428;2023-03-31T04:20:20;23.48;;;10.32;;
21420;SDS011;10871;50.144;8.428;2023-03-31T04:22:47;21.95;;;9.52;;
21420;SDS011;10871;50.144;8.428;2023-03-31T04:25:15;23.48;;;9.10;;
21420;SDS011;10871;50.144;8.428;2023-03-31T04:27:43;18.30;;;8.68;;
21420;SDS011;10871;50.144;8.428;2023-03-31T04:30:16;21.90;;;9.07;;
21420;SDS011;10871;50.144;8.428;2023-03-31T04:32:49;19.88;;;9.20;;
21420;SDS011;10871;50.144;8.428;2023-03-31T04:35:17;16.35;;;7.55;;
21420;SDS011;10871;50.144;8.428;2023-03-31T04:37:43;22.58;;;8.30;;
21420;SDS011;10871;50.144;8.428;2023-03-31T04:40:09;18.33;;;7.90;;
21420;SDS011;10871;50.144;8.428;2023-03-31T04:42:37;19.95;;;7.75;;
21420;SDS011;10871;50.144;8.428;2023-03-31T04:45:03;24.17;;;8.18;;
21420;SDS011;10871;50.144;8.428;2023-03-31T04:47:30;19.15;;;8.25;;
21420;SDS011;10871;50.144;8.428;2023-03-31T04:49:56;17.05;;;7.18;;
21420;SDS011;10871;50.144;8.428;2023-03-31T04:52:23;17.48;;;7.25;;
21420;SDS011;10871;50.144;8.428;2023-03-31T04:54:50;14.00;;;7.13;;
21420;SDS011;10871;50.144;8.428;2023-03-31T04:57:16;13.98;;;7.35;;
21420;SDS011;10871;50.144;8.428;2023-03-31T04:59:43;17.98;;;6.97;;
21420;SDS011;10871;50.144;8.428;2023-03-31T05:02:10;18.10;;;7.10;;
21420;SDS011;10871;50.144;8.428;2023-03-31T05:04:36;20.63;;;7.10;;
21420;SDS011;10871;50.144;8.428;2023-03-31T05:07:03;14.30;;;5.85;;
21420;SDS011;10871;50.144;8.428;2023-03-31T05:09:29;17.33;;;4.75;;
21420;SDS011;10871;50.144;8.428;2023-03-31T05:11:58;12.23;;;3.67;;
21420;SDS011;10871;50.144;8.428;2023-03-31T05:14:25;15.75;;;3.90;;
21420;SDS011;10871;50.144;8.428;2023-03-31T05:16:51;8.55;;;2.80;;
21420;SDS011;10871;50.144;8.428;2023-03-31T05:19:18;10.90;;;3.25;;
21420;SDS011;10871;50.144;8.428;2023-03-31T05:21:44;18.45;;;4.05;;
21420;SDS011;10871;50.144;8.428;2023-03-31T05:24:12;8.65;;;2.83;;
21420;SDS011;10871;50.144;8.428;2023-03-31T05:26:38;9.77;;;2.50;;
21420;SDS011;10871;50.144;8.428;2023-03-31T05:29:06;12.23;;;3.30;;
21420;SDS011;10871;50.144;8.428;2023-03-31T05:31:32;11.95;;;2.92;;
21420;SDS011;10871;50.144;8.428;2023-03-31T05:33:59;8.68;;;2.90;;
21420;SDS011;10871;50.144;8.428;2023-03-31T05:36:26;10.88;;;2.92;;
21420;SDS011;10871;50.144;8.428;2023-03-31T05:38:52;8.40;;;2.85;;
21420;SDS011;10871;50.144;8.428;2023-03-31T05:41:19;17.02;;;3.00;;
21420;SDS011;10871;50.144;8.428;2023-03-31T05:43:47;14.65;;;2.70;;
21420;SDS011;10871;50.144;8.428;2023-03-31T05:46:14;15.90;;;3.17;;
21420;SDS011;10871;50.144;8.428;2023-03-31T05:48:40;9.00;;;2.53;;
21420;SDS011;10871;50.144;8.428;2023-03-31T05:51:08;11.10;;;3.03;;
21420;SDS011;10871;50.144;8.428;2023-03-31T05:53:35;11.82;;;3.15;;
21420;SDS011;10871;50.144;8.428;2023-03-31T05:56:04;11.63;;;2.72;;
21420;SDS011;10871;50.144;8.428;2023-03-31T05:58:33;8.27;;;2.75;;
21420;SDS011;10871;50.144;8.428;2023-03-31T06:01:08;12.45;;;3.40;;
21420;SDS011;10871;50.144;8.428;2023-03-31T06:03:37;13.27;;;2.90;;
21420;SDS011;10871;50.144;8.428;2023-03-31T06:06:04;13.20;;;2.95;;
21420;SDS011;10871;50.144;8.428;2023-03-31T06:08:31;8.65;;;2.90;;
21420;SDS011;10871;50.144;8.428;2023-03-31T06:10:58;12.43;;;2.90;;
21420;SDS011;10871;50.144;8.428;2023-03-31T06:13:24;10.05;;;2.95;;
21420;SDS011;10871;50.144;8.428;2023-03-31T06:15:54;15.98;;;3.50;;
21420;SDS011;10871;50.144;8.428;2023-03-31T06:18:22;13.00;;;3.47;;
21420;SDS011;10871;50.144;8.428;2023-03-31T06:20:49;10.50;;;2.90;;
21420;SDS011;10871;50.144;8.428;2023-03-31T06:23:17;12.68;;;3.38;;
21420;SDS011;10871;50.144;8.428;2023-03-31T06:25:43;14.35;;;3.42;;
21420;SDS011;10871;50.144;8.428;2023-03-31T06:28:17;9.27;;;3.13;;
21420;SDS011;10871;50.144;8.428;2023-03-31T06:30:45;12.68;;;3.40;;
21420;SDS011;10871;50.144;8.428;2023-03-31T06:33:12;14.38;;;3.78;;
21420;SDS011;10871;50.144;8.428;2023-03-31T06:35:40;14.02;;;3.90;;
21420;SDS011;10871;50.144;8.428;2023-03-31T06:38:07;12.52;;;4.00;;
21420;SDS011;10871;50.144;8.428;2023-03-31T06:40:35;14.13;;;4.85;;
21420;SDS011;10871;50.144;8.428;2023-03-31T06:43:01;18.02;;;6.15;;
21420;SDS011;10871;50.144;8.428;2023-03-31T06:45:28;16.25;;;5.53;;
21420;SDS011;10871;50.144;8.428;2023-03-31T06:47:55;13.95;;;6.53;;
21420;SDS011;10871;50.144;8.428;2023-03-31T06:50:21;26.00;;;8.68;;
21420;SDS011;10871;50.144;8.428;2023-03-31T06:52:50;23.63;;;9.18;;
21420;SDS011;10871;50.144;8.428;2023-03-31T06:55:19;20.65;;;9.68;;
21420;SDS011;10871;50.144;8.428;2023-03-31T06:57:46;21.25;;;11.13;;
21420;SDS011;10871;50.144;8.428;2023-03-31T07:00:12;23.55;;;10.95;;
21420;SDS011;10871;50.144;8.428;2023-03-31T07:02:39;23.65;;;11.13;;
21420;SDS011;10871;50.144;8.428;2023-03-31T07:05:07;21.60;;;12.20;;
21420;SDS011;10871;50.144;8.428;2023-03-31T07:07:34;25.98;;;12.55;;
21420;SDS011;10871;50.144;8.428;2023-03-31T07:10:01;18.75;;;11.85;;
21420;SDS011;10871;50.144;8.428;2023-03-31T07:12:31;21.80;;;12.75;;
21420;SDS011;10871;50.144;8.428;2023-03-31T07:14:57;17.52;;;11.68;;
21420;SDS011;10871;50.144;8.428;2023-03-31T07:17:24;17.52;;;10.98;;
21420;SDS011;10871;50.144;8.428;2023-03-31T07:19:51;15.35;;;10.73;;
21420;SDS011;10871;50.144;8.428;2023-03-31T07:22:17;16.30;;;10.27;;
21420;SDS011;10871;50.144;8.428;2023-03-31T07:24:44;17.90;;;10.52;;
21420;SDS011;10871;50.144;8.428;2023-03-31T07:27:11;12.80;;;9.57;;
21420;SDS011;10871;50.144;8.428;2023-03-31T07:29:38;12.13;;;8.70;;
21420;SDS011;10871;50.144;8.428;2023-03-31T07:32:05;8.68;;;6.28;;
21420;SDS011;10871;50.144;8.428;2023-03-31T07:34:32;7.70;;;5.28;;
21420;SDS011;10871;50.144;8.428;2023-03-31T07:37:02;7.43;;;5.40;;
21420;SDS011;10871;50.144;8.428;2023-03-31T07:39:28;7.60;;;3.97;;
21420;SDS011;10871;50.144;8.428;2023-03-31T07:41:58;6.82;;;4.30;;
21420;SDS011;10871;50.144;8.428;2023-03-31T07:44:24;5.60;;;4.15;;
21420;SDS011;10871;50.144;8.428;2023-03-31T07:46:51;7.60;;;4.18;;
21420;SDS011;10871;50.144;8.428;2023-03-31T07:49:17;5.93;;;3.88;;
21420;SDS011;10871;50.144;8.428;2023-03-31T07:51:45;6.45;;;3.88;;
21420;SDS011;10871;50.144;8.428;2023-03-31T07:54:12;6.03;;;3.83;;
21420;SDS011;10871;50.144;8.428;2023-03-31T07:56:39;6.43;;;3.50;;
21420;SDS011;10871;50.144;8.428;2023-03-31T07:59:05;5.85;;;3.20;;
21420;SDS011;10871;50.144;8.428;2023-03-31T08:01:32;4.82;;;2.65;;
21420;SDS011;10871;50.144;8.428;2023-03-31T08:03:59;4.07;;;2.70;;
21420;SDS011;10871;50.144;8.428;2023-03-31T08:06:27;7.90;;;3.28;;
21420;SDS011;10871;50.144;8.428;2023-03-31T08:08:55;3.85;;;2.90;;
21420;SDS011;10871;50.144;8.428;2023-03-31T08:11:22;5.10;;;3.00;;
21420;SDS011;10871;50.144;8.428;2023-03-31T08:13:52;4.03;;;3.20;;
21420;SDS011;10871;50.144;8.428;2023-03-31T08:16:18;3.90;;;2.40;;
21420;SDS011;10871;50.144;8.428;2023-03-31T08:18:45;2.50;;;2.10;;
21420;SDS011;10871;50.144;8.428;2023-03-31T08:21:11;4.32;;;2.05;;
21420;SDS011;10871;50.144;8.428;2023-03-31T08:23:38;5.22;;;3.13;;
21420;SDS011;10871;50.144;8.428;2023-03-31T08:26:08;5.13;;;2.45;;
21420;SDS011;10871;50.144;8.428;2023-03-31T08:28:35;4.07;;;1.92;;
21420;SDS011;10871;50.144;8.428;2023-03-31T08:31:05;4.15;;;2.05;;
21420;SDS011;10871;50.144;8.428;2023-03-31T08:33:32;5.68;;;2.13;;
21420;SDS011;10871;50.144;8.428;2023-03-31T08:36:03;3.72;;;1.92;;
21420;SDS011;10871;50.144;8.428;2023-03-31T08:38:30;7.20;;;2.30;;
21420;SDS011;10871;50.144;8.428;2023-03-31T08:41:00;6.93;;;4.22;;
21420;SDS011;10871;50.144;8.428;2023-03-31T08:43:29;4.20;;;2.40;;
21420;SDS011;10871;50.144;8.428;2023-03-31T08:45:57;4.13;;;2.03;;
21420;SDS011;10871;50.144;8.428;2023-03-31T08:48:32;4.00;;;2.63;;
21420;SDS011;10871;50.144;8.428;2023-03-31T08:51:05;3.28;;;1.70;;
21420;SDS011;10871;50.144;8.428;2023-03-31T08:53:34;4.00;;;1.90;;
21420;SDS011;10871;50.144;8.428;2023-03-31T08:56:03;2.90;;;1.80;;
21420;SDS011;10871;50.144;8.428;2023-03-31T09:01:10;2.42;;;1.73;;
21420;SDS011;10871;50.144;8.428;2023-03-31T09:08:58;4.07;;;1.88;;
21420;SDS011;10871;50.144;8.428;2023-03-31T09:11:28;2.50;;;2.30;;
21420;SDS011;10871;50.144;8.428;2023-03-31T09:19:30;3.10;;;2.20;;
21420;SDS011;10871;50.144;8.428;2023-03-31T09:21:58;4.30;;;1.58;;
21420;SDS011;10871;50.144;8.428;2023-03-31T09:24:29;5.63;;;1.75;;
21420;SDS011;10871;50.144;8.428;2023-03-31T09:27:02;5.25;;;4.63;;
21420;SDS011;10871;50.144;8.428;2023-03-31T09:30:15;7.57;;;4.30;;
21420;SDS011;10871;50.144;8.428;2023-03-31T09:32:29;3.38;;;1.85;;
21420;SDS011;10871;50.144;8.428;2023-03-31T09:35:19;5.25;;;2.13;;
21420;SDS011;10871;50.144;8.428;2023-03-31T09:37:43;7.07;;;4.15;;
21420;SDS011;10871;50.144;8.428;2023-03-31T09:40:13;7.00;;;2.22;;
21420;SDS011;10871;50.144;8.428;2023-03-31T09:42:41;5.28;;;2.72;;
21420;SDS011;10871;50.144;8.428;2023-03-31T09:45:18;6.47;;;2.33;;
21420;SDS011;10871;50.144;8.428;2023-03-31T09:47:46;7.57;;;2.60;;
21420;SDS011;10871;50.144;8.428;2023-03-31T09:50:15;6.40;;;2.33;;
21420;SDS011;10871;50.144;8.428;2023-03-31T09:52:43;6.22;;;2.60;;
21420;SDS011;10871;50.144;8.428;2023-03-31T09:58:05;5.40;;;2.65;;
21420;SDS011;10871;50.144;8.428;2023-03-31T10:00:34;6.35;;;2.83;;
21420;SDS011;10871;50.144;8.428;2023-03-31T10:03:02;6.47;;;2.67;;
21420;SDS011;10871;50.144;8.428;2023-03-31T10:05:34;9.75;;;3.03;;
21420;SDS011;10871;50.144;8.428;2023-03-31T10:10:36;6.50;;;2.58;;
21420;SDS011;10871;50.144;8.428;2023-03-31T10:13:06;8.52;;;2.90;;
21420;SDS011;10871;50.144;8.428;2023-03-31T10:15:36;7.85;;;2.95;;
21420;SDS011;10871;50.144;8.428;2023-03-31T10:18:05;8.00;;;2.97;;
21420;SDS011;10871;50.144;8.428;2023-03-31T10:20:33;11.82;;;3.72;;
21420;SDS011;10871;50.144;8.428;2023-03-31T10:23:03;8.95;;;3.38;;
21420;SDS011;10871;50.144;8.428;2023-03-31T10:25:32;13.82;;;7.38;;
21420;SDS011;10871;50.144;8.428;2023-03-31T10:27:59;6.85;;;2.15;;
21420;SDS011;10871;50.144;8.428;2023-03-31T10:30:29;5.78;;;1.85;;
21420;SDS011;10871;50.144;8.428;2023-03-31T10:32:59;3.60;;;1.55;;
21420;SDS011;10871;50.144;8.428;2023-03-31T10:35:40;2.42;;;1.05;;
21420;SDS011;10871;50.144;8.428;2023-03-31T10:38:11;4.93;;;1.48;;
21420;SDS011;10871;50.144;8.428;2023-03-31T10:40:39;4.70;;;1.90;;
21420;SDS011;10871;50.144;8.428;2023-03-31T10:43:17;7.00;;;1.98;;
21420;SDS011;10871;50.144;8.428;2023-03-31T10:45:49;5.28;;;1.85;;
21420;SDS011;10871;50.144;8.428;2023-03-31T10:48:17;4.43;;;1.70;;
21420;SDS011;10871;50.144;8.428;2023-03-31T10:50:44;5.10;;;2.03;;
21420;SDS011;10871;50.144;8.428;2023-03-31T10:53:12;5.97;;;2.05;;
21420;SDS011;10871;50.144;8.428;2023-03-31T10:55:49;5.95;;;2.17;;
21420;SDS011;10871;50.144;8.428;2023-03-31T11:04:18;9.52;;;2.20;;
21420;SDS011;10871;50.144;8.428;2023-03-31T11:06:24;5.85;;;2.08;;
21420;SDS011;10871;50.144;8.428;2023-03-31T11:09:06;4.40;;;1.95;;
21420;SDS011;10871;50.144;8.428;2023-03-31T11:20:11;5.38;;;1.67;;
21420;SDS011;10871;50.144;8.428;2023-03-31T11:22:43;6.13;;;1.90;;
21420;SDS011;10871;50.144;8.428;2023-03-31T11:30:36;6.72;;;2.45;;
21420;SDS011;10871;50.144;8.428;2023-03-31T11:41:57;11.77;;;2.67;;
21420;SDS011;10871;50.144;8.428;2023-03-31T11:44:16;10.32;;;2.33;;
21420;SDS011;10871;50.144;8.428;2023-03-31T11:46:51;9.95;;;2.15;;
21420;SDS011;10871;50.144;8.428;2023-03-31T11:55:02;10.48;;;2.00;;
21420;SDS011;10871;50.144;8.428;2023-03-31T12:00:05;8.70;;;1.98;;
21420;SDS011;10871;50.144;8.428;2023-03-31T12:02:47;8.70;;;2.00;;
21420;SDS011;10871;50.144;8.428;2023-03-31T12:05:16;8.98;;;2.00;;
21420;SDS011;10871;50.144;8.428;2023-03-31T12:07:53;7.78;;;1.88;;
21420;SDS011;10871;50.144;8.428;2023-03-31T12:10:28;10.30;;;2.70;;
21420;SDS011;10871;50.144;8.428;2023-03-31T12:15:35;6.60;;;2.08;;
21420;SDS011;10871;50.144;8.428;2023-03-31T12:18:13;10.23;;;2.83;;
21420;SDS011;10871;50.144;8.428;2023-03-31T12:20:44;9.32;;;2.22;;
21420;SDS011;10871;50.144;8.428;2023-03-31T12:23:17;11.20;;;1.67;;
21420;SDS011;10871;50.144;8.428;2023-03-31T12:25:50;8.45;;;1.77;;
21420;SDS011;10871;50.144;8.428;2023-03-31T12:28:17;9.43;;;4.40;;
21420;SDS011;10871;50.144;8.428;2023-03-31T12:30:44;8.15;;;1.67;;
21420;SDS011;10871;50.144;8.428;2023-03-31T12:33:19;7.32;;;2.13;;
21420;SDS011;10871;50.144;8.428;2023-03-31T12:35:51;7.82;;;1.92;;
21420;SDS011;10871;50.144;8.428;2023-03-31T12:41:03;7.88;;;2.22;;
21420;SDS011;10871;50.144;8.428;2023-03-31T12:54:18;6.15;;;2.00;;
21420;SDS011;10871;50.144;8.428;2023-03-31T12:59:40;11.23;;;2.25;;
21420;SDS011;10871;50.144;8.428;2023-03-31T13:02:16;7.97;;;2.38;;
21420;SDS011;10871;50.144;8.428;2023-03-31T13:04:45;7.97;;;2.50;;
21420;SDS011;10871;50.144;8.428;2023-03-31T13:07:13;6.10;;;2.00;;
21420;SDS011;10871;50.144;8.428;2023-03-31T13:10:01;6.40;;;2.30;;
21420;SDS011;10871;50.144;8.428;2023-03-31T13:13:00;8.40;;;2.67;;
21420;SDS011;10871;50.144;8.428;2023-03-31T13:15:28;8.63;;;2.55;;
21420;SDS011;10871;50.144;8.428;2023-03-31T13:17:57;7.65;;;2.13;;
21420;SDS011;10871;50.144;8.428;2023-03-31T13:20:36;7.38;;;2.42;;
21420;SDS011;10871;50.144;8.428;2023-03-31T13:23:20;10.70;;;2.80;;
21420;SDS011;10871;50.144;8.428;2023-03-31T13:25:48;5.50;;;2.10;;
21420;SDS011;10871;50.144;8.428;2023-03-31T13:31:04;5.22;;;2.15;;
21420;SDS011;10871;50.144;8.428;2023-03-31T13:33:33;6.07;;;2.30;;
21420;SDS011;10871;50.144;8.428;2023-03-31T13:36:46;6.53;;;2.20;;
21420;SDS011;10871;50.144;8.428;2023-03-31T13:44:06;8.35;;;2.10;;
21420;SDS011;10871;50.144;8.428;2023-03-31T13:51:56;5.22;;;1.75;;
21420;SDS011;10871;50.144;8.428;2023-03-31T14:10:33;3.58;;;1.58;;
21420;SDS011;10871;50.144;8.428;2023-03-31T14:13:06;3.13;;;1.38;;
21420;SDS011;10871;50.144;8.428;2023-03-31T14:15:35;5.82;;;1.50;;
21420;SDS011;10871;50.144;8.428;2023-03-31T14:18:02;5.18;;;1.60;;
21420;SDS011;10871;50.144;8.428;2023-03-31T14:20:34;4.00;;;1.60;;
21420;SDS011;10871;50.144;8.428;2023-03-31T14:31:06;5.88;;;2.22;;
21420;SDS011;10871;50.144;8.428;2023-03-31T14:36:08;5.22;;;1.52;;
21420;SDS011;10871;50.144;8.428;2023-03-31T14:38:36;3.70;;;1.60;;
21420;SDS011;10871;50.144;8.428;2023-03-31T14:41:03;5.35;;;1.45;;
21420;SDS011;10871;50.144;8.428;2023-03-31T14:43:31;3.10;;;1.50;;
21420;SDS011;10871;50.144;8.428;2023-03-31T14:46:03;3.92;;;1.60;;
21420;SDS011;10871;50.144;8.428;2023-03-31T14:48:32;5.53;;;1.58;;
21420;SDS011;10871;50.144;8.428;2023-03-31T14:51:00;6.28;;;1.60;;
21420;SDS011;10871;50.144;8.428;2023-03-31T14:53:27;6.72;;;1.83;;
21420;SDS011;10871;50.144;8.428;2023-03-31T14:55:58;5.95;;;1.60;;
21420;SDS011;10871;50.144;8.428;2023-03-31T14:58:27;4.25;;;1.50;;
21420;SDS011;10871;50.144;8.428;2023-03-31T15:00:55;8.60;;;1.83;;
21420;SDS011;10871;50.144;8.428;2023-03-31T15:03:22;6.47;;;1.98;;
21420;SDS011;10871;50.144;8.428;2023-03-31T15:05:57;6.05;;;2.22;;
21420;SDS011;10871;50.144;8.428;2023-03-31T15:08:24;8.18;;;1.73;;
21420;SDS011;10871;50.144;8.428;2023-03-31T15:10:55;7.97;;;1.92;;
21420;SDS011;10871;50.144;8.428;2023-03-31T15:13:40;8.98;;;1.63;;
21420;SDS011;10871;50.144;8.428;2023-03-31T15:16:19;5.80;;;1.85;;
21420;SDS011;10871;50.144;8.428;2023-03-31T15:18:46;6.00;;;1.50;;
21420;SDS011;10871;50.144;8.428;2023-03-31T15:21:19;3.67;;;1.10;;
21420;SDS011;10871;50.144;8.428;2023-03-31T15:23:45;4.22;;;1.00;;
21420;SDS011;10871;50.144;8.428;2023-03-31T15:26:12;4.05;;;1.25;;
21420;SDS011;10871;50.144;8.428;2023-03-31T15:28:48;2.63;;;0.70;;
21420;SDS011;10871;50.144;8.428;2023-03-31T15:31:19;3.30;;;1.27;;
21420;SDS011;10871;50.144;8.428;2023-03-31T15:33:46;4.25;;;1.10;;
21420;SDS011;10871;50.144;8.428;2023-03-31T15:36:13;4.47;;;1.08;;
21420;SDS011;10871;50.144;8.428;2023-03-31T15:38:40;4.25;;;1.25;;
21420;SDS011;10871;50.144;8.428;2023-03-31T15:41:14;2.47;;;0.90;;
21420;SDS011;10871;50.144;8.428;2023-03-31T15:43:49;5.07;;;1.00;;
21420;SDS011;10871;50.144;8.428;2023-03-31T15:49:00;3.92;;;0.73;;
21420;SDS011;10871;50.144;8.428;2023-03-31T15:51:31;7.45;;;1.23;;
21420;SDS011;10871;50.144;8.428;2023-03-31T15:53:59;5.50;;;1.30;;
21420;SDS011;10871;50.144;8.428;2023-03-31T15:56:34;5.97;;;1.33;;
21420;SDS011;10871;50.144;8.428;2023-03-31T15:59:03;4.45;;;1.23;;
21420;SDS011;10871;50.144;8.428;2023-03-31T16:01:31;4.13;;;1.00;;
21420;SDS011;10871;50.144;8.428;2023-03-31T16:04:05;4.78;;;1.15;;
21420;SDS011;10871;50.144;8.428;2023-03-31T16:09:09;5.47;;;1.00;;
21420;SDS011;10871;50.144;8.428;2023-03-31T16:14:07;6.40;;;1.40;;
21420;SDS011;10871;50.144;8.428;2023-03-31T16:16:35;6.80;;;1.35;;
21420;SDS011;10871;50.144;8.428;2023-03-31T16:19:03;8.23;;;1.50;;
21420;SDS011;10871;50.144;8.428;2023-03-31T16:21:38;6.30;;;1.40;;
21420;SDS011;10871;50.144;8.428;2023-03-31T16:24:05;4.82;;;1.38;;
21420;SDS011;10871;50.144;8.428;2023-03-31T16:26:32;8.88;;;1.45;;
21420;SDS011;10871;50.144;8.428;2023-03-31T16:28:59;7.53;;;1.63;;
21420;SDS011;10871;50.144;8.428;2023-03-31T16:31:27;4.57;;;1.42;;
21420;SDS011;10871;50.144;8.428;2023-03-31T16:33:55;6.25;;;1.48;;
21420;SDS011;10871;50.144;8.428;2023-03-31T16:36:22;5.15;;;1.42;;
21420;SDS011;10871;50.144;8.428;2023-03-31T16:38:52;7.75;;;1.83;;
21420;SDS011;10871;50.144;8.428;2023-03-31T16:41:20;5.20;;;2.45;;
21420;SDS011;10871;50.144;8.428;2023-03-31T16:43:48;6.00;;;2.00;;
21420;SDS011;10871;50.144;8.428;2023-03-31T16:46:17;5.25;;;1.40;;
21420;SDS011;10871;50.144;8.428;2023-03-31T16:48:44;6.18;;;1.83;;
21420;SDS011;10871;50.144;8.428;2023-03-31T16:51:10;7.95;;;1.70;;
21420;SDS011;10871;50.144;8.428;2023-03-31T16:53:37;5.60;;;1.65;;
21420;SDS011;10871;50.144;8.428;2023-03-31T16:56:04;6.05;;;1.63;;
21420;SDS011;10871;50.144;8.428;2023-03-31T16:58:35;6.05;;;1.70;;
21420;SDS011;10871;50.144;8.428;2023-03-31T17:01:03;5.15;;;1.45;;
21420;SDS011;10871;50.144;8.428;2023-03-31T17:03:30;8.73;;;1.90;;
21420;SDS011;10871;50.144;8.428;2023-03-31T17:05:57;6.63;;;2.00;;
21420;SDS011;10871;50.144;8.428;2023-03-31T17:08:25;6.97;;;1.60;;
21420;SDS011;10871;50.144;8.428;2023-03-31T17:10:54;8.35;;;1.70;;
21420;SDS011;10871;50.144;8.428;2023-03-31T17:13:21;6.78;;;1.42;;
21420;SDS011;10871;50.144;8.428;2023-03-31T17:15:47;8.13;;;2.05;;
21420;SDS011;10871;50.144;8.428;2023-03-31T17:18:15;9.05;;;1.65;;
21420;SDS011;10871;50.144;8.428;2023-03-31T17:20:42;9.60;;;1.80;;
21420;SDS011;10871;50.144;8.428;2023-03-31T17:23:08;8.88;;;1.92;;
21420;SDS011;10871;50.144;8.428;2023-03-31T17:25:35;10.07;;;2.05;;
21420;SDS011;10871;50.144;8.428;2023-03-31T17:28:02;9.70;;;1.85;;
21420;SDS011;10871;50.144;8.428;2023-03-31T17:30:29;7.57;;;1.73;;
21420;SDS011;10871;50.144;8.428;2023-03-31T17:32:58;9.85;;;2.10;;